Time;durP1;ratioP1;P1;durP2;ratioP2;P2;SDS_P1;SDS_P2;PMS_P1;PMS_P2;Temp;Humidity;BMP_temperature;BMP_pressure;BME280_temperature;BME280_humidity;BME280_pressure;Samples;Min_cycle;Max_cycle;Signal;HPM_P1;HPM_P2
2022/08/17 00:00:27;;;;;;;4.25;3.22;;;19.60;99.90;;;;;;5073450;28;20205;-58
2022/08/17 00:02:59;;;;;;;4.38;3.92;;;19.50;99.90;;;;;;5073571;28;20234;-57
2022/08/17 00:05:27;;;;;;;5.43;3.55;;;19.60;99.90;;;;;;5073223;28;20276;-58
2022/08/17 00:07:55;;;;;;;4.15;3.55;;;19.60;99.90;;;;;;5073310;28;20357;-58
2022/08/17 00:10:22;;;;;;;5.90;3.78;;;19.60;99.90;;;;;;5073070;28;20217;-57
2022/08/17 00:12:51;;;;;;;4.15;3.75;;;19.70;99.90;;;;;;5072954;28;20266;-58
2022/08/17 00:15:19;;;;;;;3.65;3.35;;;19.60;99.90;;;;;;5073131;28;20236;-57
2022/08/17 00:17:48;;;;;;;5.35;3.83;;;19.60;99.90;;;;;;5072966;28;20205;-58
2022/08/17 00:20:16;;;;;;;4.45;3.40;;;19.60;99.90;;;;;;5072815;28;20205;-59
2022/08/17 00:22:44;;;;;;;4.05;3.50;;;19.60;99.90;;;;;;5072790;28;20260;-58
2022/08/17 00:25:13;;;;;;;4.60;4.20;;;19.60;99.90;;;;;;5072971;28;20233;-58
2022/08/17 00:27:40;;;;;;;4.18;3.70;;;19.50;99.90;;;;;;5072925;28;20208;-58
2022/08/17 00:30:11;;;;;;;4.25;3.85;;;19.50;99.90;;;;;;5072785;28;20221;-58
2022/08/17 00:32:39;;;;;;;4.88;3.75;;;19.50;99.90;;;;;;5073001;28;20201;-58
2022/08/17 00:35:08;;;;;;;5.63;3.70;;;19.50;99.90;;;;;;5073204;28;20286;-58
2022/08/17 00:37:35;;;;;;;4.28;3.88;;;19.50;99.90;;;;;;5074085;28;20205;-59
2022/08/17 00:40:02;;;;;;;8.75;3.80;;;19.50;99.90;;;;;;5073684;28;20205;-58
2022/08/17 00:42:29;;;;;;;5.13;3.75;;;19.50;99.90;;;;;;5073004;28;20233;-57
2022/08/17 00:44:56;;;;;;;4.00;3.60;;;19.60;99.90;;;;;;5073451;28;20296;-59
2022/08/17 00:47:25;;;;;;;5.85;3.80;;;19.50;99.90;;;;;;5072869;28;20321;-58
2022/08/17 00:49:52;;;;;;;4.70;4.05;;;19.40;99.90;;;;;;5072874;28;20208;-56
2022/08/17 00:52:22;;;;;;;4.60;3.75;;;19.40;99.90;;;;;;5073096;28;20264;-56
2022/08/17 00:54:53;;;;;;;4.05;3.45;;;19.40;99.90;;;;;;5073201;28;20303;-58
2022/08/17 00:57:24;;;;;;;4.32;3.92;;;19.40;99.90;;;;;;5072812;28;20640;-59
2022/08/17 00:59:54;;;;;;;4.55;3.83;;;19.40;99.90;;;;;;5072356;28;20647;-56
2022/08/17 01:02:22;;;;;;;5.63;3.80;;;19.40;99.90;;;;;;5072236;28;20286;-56
2022/08/17 01:04:52;;;;;;;3.90;3.50;;;19.40;99.90;;;;;;5072140;28;20233;-56
2022/08/17 01:07:22;;;;;;;5.47;3.67;;;19.40;99.90;;;;;;5072788;28;20209;-58
2022/08/17 01:09:50;;;;;;;4.80;3.92;;;19.40;99.90;;;;;;5072670;28;20709;-58
2022/08/17 01:12:17;;;;;;;5.18;3.90;;;19.30;99.90;;;;;;5072861;28;20271;-58
2022/08/17 01:14:44;;;;;;;4.20;3.80;;;19.30;99.90;;;;;;5072452;28;20235;-57
2022/08/17 01:17:11;;;;;;;4.07;3.67;;;19.30;99.90;;;;;;5073144;28;20209;-56
2022/08/17 01:19:41;;;;;;;6.20;3.80;;;19.30;99.90;;;;;;5072469;28;20224;-56
2022/08/17 01:22:17;;;;;;;4.55;3.60;;;19.30;99.90;;;;;;5072221;28;20239;-57
2022/08/17 01:24:48;;;;;;;5.82;3.88;;;19.30;99.90;;;;;;5071998;28;20291;-57
2022/08/17 01:27:16;;;;;;;5.65;3.67;;;19.20;99.90;;;;;;5072463;28;20216;-57
2022/08/17 01:29:47;;;;;;;5.28;3.80;;;19.10;99.90;;;;;;5072714;28;20209;-57
2022/08/17 01:32:15;;;;;;;5.38;3.80;;;19.20;99.90;;;;;;5072474;28;20579;-56
2022/08/17 01:34:42;;;;;;;5.07;3.50;;;19.20;99.90;;;;;;5072441;28;20224;-56
2022/08/17 01:37:09;;;;;;;6.60;4.30;;;19.20;99.90;;;;;;5072534;28;20205;-56
2022/08/17 01:39:42;;;;;;;4.30;3.90;;;19.20;99.90;;;;;;5072336;28;20562;-56
2022/08/17 01:42:16;;;;;;;5.07;3.80;;;19.20;99.90;;;;;;5072198;28;20622;-57
2022/08/17 01:44:43;;;;;;;5.18;3.83;;;19.20;99.90;;;;;;5072045;28;20314;-56
2022/08/17 01:47:11;;;;;;;4.75;4.15;;;19.20;99.90;;;;;;5072321;28;20545;-56
2022/08/17 01:49:37;;;;;;;5.05;4.00;;;19.10;99.90;;;;;;5072222;28;20649;-56
2022/08/17 01:52:07;;;;;;;4.45;4.05;;;19.10;99.90;;;;;;5071970;28;20197;-56
2022/08/17 01:54:36;;;;;;;5.45;3.72;;;19.00;99.90;;;;;;5072247;28;20221;-57
2022/08/17 01:57:04;;;;;;;6.22;3.65;;;19.10;99.90;;;;;;5072305;28;20255;-56
2022/08/17 01:59:32;;;;;;;5.68;4.18;;;19.10;99.90;;;;;;5073380;28;20205;-56
2022/08/17 02:01:59;;;;;;;4.72;3.90;;;19.10;99.90;;;;;;5075931;28;20217;-56
2022/08/17 02:04:26;;;;;;;8.15;4.15;;;19.10;99.90;;;;;;5075555;28;20708;-56
2022/08/17 02:06:53;;;;;;;4.32;4.03;;;19.10;99.90;;;;;;5076136;28;20299;-56
2022/08/17 02:09:20;;;;;;;5.30;4.15;;;19.10;99.90;;;;;;5076157;28;20244;-56
2022/08/17 02:11:47;;;;;;;6.03;4.43;;;19.10;99.90;;;;;;5075684;28;20294;-56
2022/08/17 02:14:16;;;;;;;5.32;4.20;;;19.10;99.90;;;;;;5077147;28;20258;-56
2022/08/17 02:16:44;;;;;;;5.38;4.40;;;19.10;99.90;;;;;;5077483;28;20703;-57
2022/08/17 02:19:14;;;;;;;5.07;4.32;;;19.10;99.90;;;;;;5076718;28;20673;-56
2022/08/17 02:21:42;;;;;;;4.38;3.97;;;19.00;99.90;;;;;;5076866;28;20209;-56
2022/08/17 02:24:13;;;;;;;4.82;4.40;;;19.10;99.90;;;;;;5076911;28;20231;-57
2022/08/17 02:26:40;;;;;;;5.20;4.30;;;19.00;99.90;;;;;;5076229;28;20664;-57
2022/08/17 02:29:07;;;;;;;7.38;4.47;;;19.10;99.90;;;;;;5074705;28;20610;-57
2022/08/17 02:31:36;;;;;;;6.72;4.15;;;19.00;99.90;;;;;;5074209;28;20211;-56
2022/08/17 02:34:05;;;;;;;8.32;5.72;;;19.00;99.90;;;;;;5073746;28;20235;-57
2022/08/17 02:36:32;;;;;;;4.88;4.47;;;19.00;99.90;;;;;;5074164;28;20212;-57
2022/08/17 02:38:59;;;;;;;11.95;10.10;;;19.00;99.90;;;;;;5074101;28;20201;-56
2022/08/17 02:41:26;;;;;;;5.45;4.90;;;19.00;99.90;;;;;;5074183;28;20300;-56
2022/08/17 02:43:53;;;;;;;6.28;4.97;;;19.00;99.90;;;;;;5074270;28;20271;-56
2022/08/17 02:46:20;;;;;;;6.60;4.80;;;19.00;99.90;;;;;;5074283;28;20638;-55
2022/08/17 02:48:48;;;;;;;4.65;4.25;;;19.00;99.90;;;;;;5074690;28;20295;-56
2022/08/17 02:51:15;;;;;;;7.40;4.63;;;19.00;99.90;;;;;;5074761;28;20295;-56
2022/08/17 02:53:42;;;;;;;5.63;4.50;;;19.00;99.90;;;;;;5074797;28;20201;-57
2022/08/17 02:56:09;;;;;;;6.90;5.85;;;19.00;99.90;;;;;;5073963;28;20730;-57
2022/08/17 02:58:35;;;;;;;8.52;5.10;;;19.00;99.90;;;;;;5074165;28;20220;-57
2022/08/17 03:01:03;;;;;;;6.07;5.10;;;19.00;99.90;;;;;;5074240;28;20201;-58
2022/08/17 03:03:30;;;;;;;6.88;4.63;;;19.10;99.90;;;;;;5074504;28;20228;-57
2022/08/17 03:05:59;;;;;;;7.00;4.70;;;19.10;99.90;;;;;;5074527;28;20803;-57
2022/08/17 03:08:26;;;;;;;6.35;4.60;;;19.10;99.90;;;;;;5074215;28;20292;-57
2022/08/17 03:10:53;;;;;;;4.78;4.30;;;19.10;99.90;;;;;;5074085;28;20752;-57
2022/08/17 03:13:19;;;;;;;4.72;4.30;;;19.10;99.90;;;;;;5074107;28;20205;-57
2022/08/17 03:15:47;;;;;;;4.25;3.95;;;19.00;99.90;;;;;;5074186;28;20220;-57
2022/08/17 03:18:15;;;;;;;5.57;4.40;;;19.00;99.90;;;;;;5074375;28;20205;-57
2022/08/17 03:20:42;;;;;;;4.55;4.15;;;18.90;99.90;;;;;;5074099;28;20215;-57
2022/08/17 03:23:11;;;;;;;4.68;4.28;;;19.00;99.90;;;;;;5073979;28;20251;-57
2022/08/17 03:25:40;;;;;;;4.35;3.97;;;18.90;99.90;;;;;;5074367;28;20320;-58
2022/08/17 03:28:07;;;;;;;4.40;4.00;;;18.90;99.90;;;;;;5074068;28;20216;-57
2022/08/17 03:30:34;;;;;;;5.55;4.10;;;18.80;99.90;;;;;;5074463;28;20288;-57
2022/08/17 03:33:04;;;;;;;5.63;4.55;;;18.70;99.90;;;;;;5073731;28;20687;-57
2022/08/17 03:35:35;;;;;;;4.70;4.20;;;18.60;99.90;;;;;;5075026;28;20673;-57
2022/08/17 03:38:02;;;;;;;5.38;4.15;;;18.50;99.90;;;;;;5075077;28;20232;-58
2022/08/17 03:40:32;;;;;;;5.25;4.32;;;18.40;99.90;;;;;;5075215;28;20745;-57
2022/08/17 03:43:04;;;;;;;5.00;4.32;;;18.30;99.90;;;;;;5074638;28;20260;-57
2022/08/17 03:56:42;;;;;;;4.32;3.92;;;17.90;99.90;;;;;;5075100;28;20227;-57
2022/08/17 03:59:10;;;;;;;4.60;4.20;;;17.90;99.90;;;;;;5074686;28;20208;-57
2022/08/17 04:01:38;;;;;;;4.95;4.10;;;18.00;99.90;;;;;;5074996;28;20292;-57
2022/08/17 04:04:05;;;;;;;4.70;4.18;;;18.10;99.90;;;;;;5075232;28;20225;-59
2022/08/17 04:06:32;;;;;;;4.60;4.20;;;18.00;99.90;;;;;;5075305;28;20299;-58
2022/08/17 04:08:59;;;;;;;6.13;5.35;;;18.00;99.90;;;;;;5074942;28;20205;-57
2022/08/17 04:11:27;;;;;;;4.85;4.25;;;18.00;99.90;;;;;;5075250;28;20208;-57
2022/08/17 04:13:56;;;;;;;6.00;4.65;;;18.00;99.90;;;;;;5075194;28;20201;-57
2022/08/17 04:16:23;;;;;;;6.43;4.80;;;18.10;99.90;;;;;;5075495;28;20208;-58
2022/08/17 04:18:50;;;;;;;6.63;5.18;;;18.10;99.90;;;;;;5075041;28;20211;-57
2022/08/17 04:21:18;;;;;;;5.90;4.95;;;18.10;99.90;;;;;;5075273;28;20228;-58
2022/08/17 04:23:45;;;;;;;6.40;4.70;;;18.10;99.90;;;;;;5075205;28;20252;-58
2022/08/17 04:26:13;;;;;;;7.32;5.43;;;18.00;99.90;;;;;;5074799;28;20200;-59
2022/08/17 04:28:40;;;;;;;5.90;4.90;;;18.10;99.90;;;;;;5074905;28;20207;-59
2022/08/17 04:31:09;;;;;;;5.25;4.75;;;18.00;99.90;;;;;;5075044;28;20240;-56
2022/08/17 04:33:36;;;;;;;6.65;5.03;;;18.10;99.90;;;;;;5075683;28;20298;-58
2022/08/17 04:36:05;;;;;;;5.97;5.38;;;18.10;99.90;;;;;;5076014;28;20645;-58
2022/08/17 04:38:36;;;;;;;6.00;5.32;;;18.20;99.90;;;;;;5075614;28;20205;-57
2022/08/17 04:43:53;;;;;;;7.90;5.10;;;18.30;99.90;;;;;;5075032;28;20594;-57
2022/08/17 04:46:25;;;;;;;9.52;5.43;;;18.30;99.90;;;;;;5075840;28;20216;-57
2022/08/17 04:48:55;;;;;;;6.10;5.50;;;18.30;99.90;;;;;;5075894;28;20201;-58
2022/08/17 04:51:25;;;;;;;7.38;5.70;;;18.20;99.90;;;;;;5076000;28;20204;-58
2022/08/17 04:53:55;;;;;;;6.57;5.78;;;18.20;99.90;;;;;;5075137;28;20197;-58
2022/08/17 04:56:23;;;;;;;5.95;5.13;;;18.30;99.90;;;;;;5075246;28;20215;-57
2022/08/17 04:58:52;;;;;;;6.68;5.85;;;18.30;99.90;;;;;;5075349;28;20272;-58
2022/08/17 05:01:23;;;;;;;9.75;5.60;;;18.40;99.90;;;;;;5075117;28;20208;-58
2022/08/17 05:03:51;;;;;;;6.57;5.28;;;18.50;99.90;;;;;;5075170;28;20221;-58
2022/08/17 05:06:17;;;;;;;7.80;5.22;;;18.60;99.90;;;;;;5075473;28;20208;-59
2022/08/17 05:08:44;;;;;;;6.28;5.35;;;18.60;99.90;;;;;;5075976;28;20588;-59
2022/08/17 05:11:11;;;;;;;7.50;5.25;;;18.70;99.90;;;;;;5076000;28;20657;-57
2022/08/17 05:13:38;;;;;;;5.72;4.80;;;18.80;99.90;;;;;;5076168;28;20204;-58
2022/08/17 05:16:05;;;;;;;6.90;4.63;;;18.80;99.90;;;;;;5075734;28;20254;-57
2022/08/17 05:18:33;;;;;;;6.45;4.68;;;18.80;99.90;;;;;;5074550;28;20295;-58
2022/08/17 05:21:02;;;;;;;6.03;4.95;;;18.90;99.90;;;;;;5074626;28;20346;-57
2022/08/17 05:23:28;;;;;;;6.18;5.10;;;19.00;99.90;;;;;;5073585;28;20316;-59
2022/08/17 05:25:57;;;;;;;6.00;5.10;;;19.10;99.90;;;;;;5074566;28;20252;-57
2022/08/17 05:28:26;;;;;;;8.07;5.10;;;19.30;99.90;;;;;;5074260;28;20208;-58
2022/08/17 05:30:54;;;;;;;5.32;4.82;;;19.30;99.90;;;;;;5075349;28;20208;-57
2022/08/17 05:33:24;;;;;;;6.00;4.68;;;19.40;99.90;;;;;;5074606;28;20793;-57
2022/08/17 05:35:54;;;;;;;6.47;4.40;;;19.50;99.90;;;;;;5079045;28;20221;-58
2022/08/17 05:38:24;;;;;;;6.18;4.57;;;19.50;99.90;;;;;;5081546;28;20204;-59
2022/08/17 05:40:52;;;;;;;5.90;4.47;;;19.60;99.90;;;;;;5080270;28;20648;-59
2022/08/17 05:43:21;;;;;;;5.15;4.65;;;19.80;99.90;;;;;;5079491;28;20217;-59
2022/08/17 05:45:54;;;;;;;9.15;5.05;;;20.20;99.90;;;;;;5080959;28;20225;-58
2022/08/17 05:48:21;;;;;;;4.97;3.97;;;20.90;99.90;;;;;;5081116;28;20232;-59
2022/08/17 05:50:55;;;;;;;6.70;4.72;;;22.00;99.90;;;;;;5081202;28;20208;-59
2022/08/17 05:53:28;;;;;;;6.55;4.28;;;23.60;99.90;;;;;;5080664;28;20201;-58
2022/08/17 05:56:07;;;;;;;8.52;3.90;;;25.50;99.90;;;;;;5081765;28;20287;-58
2022/08/17 05:58:46;;;;;;;6.10;3.50;;;27.10;98.70;;;;;;5080937;28;20208;-58
2022/08/17 06:01:30;;;;;;;7.65;3.70;;;28.50;93.90;;;;;;5079433;28;20229;-58
2022/08/17 06:04:07;;;;;;;4.38;3.40;;;29.50;90.50;;;;;;5078865;28;20250;-59
2022/08/17 06:06:41;;;;;;;5.97;3.70;;;30.60;84.40;;;;;;5078636;28;20565;-59
2022/08/17 06:09:30;;;;;;;6.90;3.58;;;31.50;79.50;;;;;;5078859;28;20299;-59
2022/08/17 06:12:06;;;;;;;7.45;3.97;;;32.50;73.70;;;;;;5078154;28;20239;-59
2022/08/17 06:14:50;;;;;;;7.57;3.92;;;33.30;69.40;;;;;;5079905;28;20227;-58
2022/08/17 06:17:21;;;;;;;7.82;3.90;;;34.00;67.50;;;;;;5079499;28;20200;-59
2022/08/17 06:19:54;;;;;;;8.10;3.97;;;34.80;62.80;;;;;;5079704;28;20235;-58
2022/08/17 06:22:26;;;;;;;7.22;3.83;;;35.30;59.80;;;;;;5078877;28;20231;-58
2022/08/17 06:24:57;;;;;;;7.68;4.40;;;35.80;59.50;;;;;;5078021;28;20229;-58
2022/08/17 06:27:31;;;;;;;13.65;5.13;;;36.20;57.90;;;;;;5077447;28;20186;-59
2022/08/17 06:30:07;;;;;;;9.27;4.40;;;36.40;56.20;;;;;;5077474;28;20685;-59
2022/08/17 06:32:36;;;;;;;7.50;4.50;;;36.00;56.30;;;;;;5077859;28;20218;-58
2022/08/17 06:35:05;;;;;;;6.40;4.35;;;35.70;57.00;;;;;;5078161;28;20221;-58
2022/08/17 06:38:02;;;;;;;5.18;4.10;;;35.60;56.50;;;;;;5078232;28;20240;-58
2022/08/17 06:40:55;;;;;;;7.22;4.03;;;35.80;56.00;;;;;;5077406;28;20227;-58
2022/08/17 06:43:46;;;;;;;8.80;3.70;;;36.20;55.20;;;;;;5075993;28;20692;-59
2022/08/17 06:46:21;;;;;;;7.85;3.75;;;36.70;53.90;;;;;;5077515;28;20205;-58
2022/08/17 06:48:59;;;;;;;4.78;3.67;;;37.00;53.20;;;;;;5077365;28;20246;-60
2022/08/17 06:51:31;;;;;;;3.90;3.47;;;37.00;52.90;;;;;;5076851;28;20204;-59
2022/08/17 06:54:05;;;;;;;6.10;3.65;;;36.90;53.00;;;;;;5076635;28;20211;-59
2022/08/17 06:56:37;;;;;;;5.30;3.50;;;36.80;53.00;;;;;;5076872;28;20224;-60
2022/08/17 06:59:08;;;;;;;6.10;4.03;;;36.80;52.80;;;;;;5077048;28;20280;-58
2022/08/17 07:01:39;;;;;;;5.78;3.40;;;36.80;53.20;;;;;;5077181;28;20217;-58
2022/08/17 07:04:10;;;;;;;4.80;3.30;;;36.80;52.20;;;;;;5076211;28;20273;-63
2022/08/17 07:06:44;;;;;;;6.70;3.10;;;37.10;51.70;;;;;;5077413;28;20190;-60
2022/08/17 07:09:18;;;;;;;7.18;5.78;;;37.50;50.90;;;;;;5077801;28;20210;-59
2022/08/17 07:11:51;;;;;;;5.88;4.95;;;37.80;50.10;;;;;;5077554;28;20205;-59
2022/08/17 07:14:35;;;;;;;5.13;3.45;;;37.60;50.00;;;;;;5076937;28;20220;-58
2022/08/17 07:17:06;;;;;;;4.22;3.15;;;37.50;50.30;;;;;;5076981;28;20234;-60
2022/08/17 07:19:35;;;;;;;4.28;2.92;;;37.80;49.50;;;;;;5077336;28;20208;-59
2022/08/17 07:22:15;;;;;;;4.60;3.03;;;37.90;49.90;;;;;;5077105;28;20227;-60
2022/08/17 07:24:49;;;;;;;5.65;2.95;;;38.30;48.80;;;;;;5077165;28;20628;-59
2022/08/17 07:27:20;;;;;;;5.38;2.95;;;38.80;47.80;;;;;;5077538;28;20208;-60
2022/08/17 07:29:53;;;;;;;4.03;3.42;;;39.00;47.30;;;;;;5077786;28;20212;-59
2022/08/17 07:32:26;;;;;;;6.13;3.20;;;39.00;47.00;;;;;;5074320;28;20213;-61
2022/08/17 07:35:06;;;;;;;4.05;2.70;;;38.60;47.30;;;;;;5076345;28;20727;-59
2022/08/17 07:37:33;;;;;;;4.50;3.63;;;38.50;47.40;;;;;;5077203;28;20204;-64
2022/08/17 07:40:19;;;;;;;4.70;2.75;;;38.00;48.00;;;;;;5077669;28;20244;-65
2022/08/17 07:43:02;;;;;;;4.78;2.95;;;37.40;48.70;;;;;;5077071;28;20209;-61
2022/08/17 07:48:19;;;;;;;5.20;2.90;;;38.80;47.20;;;;;;5076043;28;20225;-61
2022/08/17 07:50:47;;;;;;;3.13;2.83;;;40.10;45.50;;;;;;5076801;28;20208;-67
2022/08/17 07:53:19;;;;;;;3.85;2.95;;;41.10;43.80;;;;;;5076421;28;20239;-64
2022/08/17 07:55:47;;;;;;;3.38;2.65;;;41.90;42.60;;;;;;5075709;28;20227;-60
2022/08/17 07:58:17;;;;;;;7.60;4.22;;;42.20;42.00;;;;;;5074032;28;20208;-60
2022/08/17 08:00:44;;;;;;;4.63;2.85;;;42.20;42.00;;;;;;5074243;28;20253;-61
2022/08/17 08:03:20;;;;;;;3.85;3.08;;;42.30;41.50;;;;;;5074317;28;20209;-60
2022/08/17 08:05:50;;;;;;;4.05;3.10;;;42.30;41.30;;;;;;5074020;28;20242;-60
2022/08/17 08:08:29;;;;;;;4.72;3.28;;;42.30;40.80;;;;;;5074149;28;20204;-58
2022/08/17 08:11:07;;;;;;;5.63;3.00;;;42.40;41.20;;;;;;5074204;28;20204;-58
2022/08/17 08:13:39;;;;;;;3.45;2.70;;;42.40;41.10;;;;;;5074915;28;20208;-58
2022/08/17 08:16:23;;;;;;;6.57;3.00;;;41.80;41.10;;;;;;5074805;28;20315;-60
2022/08/17 08:18:52;;;;;;;3.13;2.58;;;41.00;42.20;;;;;;5075650;28;20234;-60
2022/08/17 08:21:33;;;;;;;3.88;3.20;;;40.20;42.90;;;;;;5074415;28;20673;-60
2022/08/17 08:24:10;;;;;;;3.35;2.90;;;39.50;43.80;;;;;;5074581;28;20259;-58
2022/08/17 08:26:45;;;;;;;9.10;3.17;;;38.90;44.70;;;;;;5074028;28;20211;-58
2022/08/17 08:29:22;;;;;;;7.78;2.80;;;37.90;45.80;;;;;;5074381;28;20232;-58
2022/08/17 08:31:58;;;;;;;4.60;2.90;;;36.60;47.90;;;;;;5073696;28;20212;-58
2022/08/17 08:34:34;;;;;;;5.53;3.10;;;35.30;50.10;;;;;;5073896;28;20311;-58
2022/08/17 08:37:12;;;;;;;3.33;2.58;;;34.60;51.10;;;;;;5074186;28;20234;-59
2022/08/17 08:39:47;;;;;;;4.47;3.13;;;33.70;52.50;;;;;;5074110;28;20677;-59
2022/08/17 08:42:23;;;;;;;4.38;3.40;;;32.90;54.10;;;;;;5074128;28;20741;-59
2022/08/17 08:44:59;;;;;;;7.10;2.90;;;32.50;55.20;;;;;;5074930;28;20231;-62
2022/08/17 08:47:51;;;;;;;4.72;2.92;;;32.20;56.20;;;;;;5074937;28;20256;-64
2022/08/17 08:50:25;;;;;;;3.78;3.00;;;31.90;56.80;;;;;;5076043;28;20216;-62
2022/08/17 08:53:09;;;;;;;6.43;3.03;;;31.50;57.90;;;;;;5075236;28;20213;-61
2022/08/17 08:55:49;;;;;;;4.28;3.10;;;31.30;58.40;;;;;;5075602;28;20221;-62
2022/08/17 08:58:22;;;;;;;6.32;3.00;;;31.00;59.10;;;;;;5074715;28;20215;-58
2022/08/17 09:00:54;;;;;;;4.55;3.67;;;30.90;59.50;;;;;;5075482;28;20583;-60
2022/08/17 09:03:44;;;;;;;3.90;3.20;;;30.90;59.80;;;;;;5075073;28;20212;-59
2022/08/17 09:06:31;;;;;;;7.43;3.47;;;30.90;59.90;;;;;;5075306;28;20303;-59
2022/08/17 09:09:11;;;;;;;4.85;3.40;;;30.90;60.00;;;;;;5078006;28;20204;-60
2022/08/17 09:11:48;;;;;;;7.38;3.70;;;30.90;60.40;;;;;;5080453;28;20204;-64
2022/08/17 09:14:19;;;;;;;3.67;3.10;;;30.90;60.80;;;;;;5080866;28;20765;-62
2022/08/17 09:16:56;;;;;;;4.85;3.30;;;30.90;60.70;;;;;;5081292;28;20264;-62
2022/08/17 09:19:29;;;;;;;3.90;3.42;;;30.80;61.00;;;;;;5081515;28;20212;-62
2022/08/17 09:22:01;;;;;;;8.40;3.47;;;30.80;61.00;;;;;;5081251;28;20204;-61
2022/08/17 09:24:33;;;;;;;5.55;3.30;;;30.60;61.50;;;;;;5080922;28;20250;-61
2022/08/17 09:27:06;;;;;;;5.57;2.95;;;30.50;61.70;;;;;;5081454;28;20212;-65
2022/08/17 09:29:39;;;;;;;4.97;3.15;;;30.40;61.90;;;;;;5080752;28;20516;-61
2022/08/17 09:32:16;;;;;;;3.45;2.95;;;30.30;62.00;;;;;;5081019;28;20196;-61
2022/08/17 09:34:49;;;;;;;5.35;2.95;;;30.20;62.20;;;;;;5080785;28;20223;-61
2022/08/17 09:37:22;;;;;;;4.25;3.22;;;30.20;62.60;;;;;;5080682;28;20244;-65
2022/08/17 09:40:00;;;;;;;8.35;3.28;;;30.10;62.60;;;;;;5080750;28;20239;-60
2022/08/17 09:42:31;;;;;;;7.10;3.20;;;30.10;62.70;;;;;;5080325;28;20226;-59
2022/08/17 09:45:09;;;;;;;4.03;2.67;;;29.90;62.90;;;;;;5080204;28;20229;-56
2022/08/17 09:47:44;;;;;;;7.45;2.67;;;29.70;63.20;;;;;;5077942;28;20207;-59
2022/08/17 09:50:15;;;;;;;6.38;2.97;;;29.70;62.80;;;;;;5078014;28;20684;-59
2022/08/17 09:52:42;;;;;;;3.25;2.95;;;29.60;63.10;;;;;;5078080;28;20205;-59
2022/08/17 09:55:10;;;;;;;4.18;3.30;;;29.80;63.00;;;;;;5077643;28;20735;-60
2022/08/17 09:57:52;;;;;;;4.43;3.17;;;30.00;62.70;;;;;;5077645;28;20209;-58
2022/08/17 10:00:25;;;;;;;4.95;3.30;;;30.30;62.40;;;;;;5077704;28;20300;-58
2022/08/17 10:03:08;;;;;;;6.20;3.30;;;30.40;62.30;;;;;;5077923;28;20266;-58
2022/08/17 10:05:45;;;;;;;4.88;3.10;;;30.40;62.20;;;;;;5078046;28;20560;-59
2022/08/17 10:08:21;;;;;;;8.40;3.28;;;30.50;62.00;;;;;;5077294;28;20208;-60
2022/08/17 10:10:58;;;;;;;4.53;3.30;;;30.40;62.20;;;;;;5078315;28;20204;-58
2022/08/17 10:13:35;;;;;;;5.90;3.58;;;30.30;62.50;;;;;;5077840;28;20209;-59
2022/08/17 10:16:09;;;;;;;4.28;3.30;;;30.30;63.20;;;;;;5077935;28;20254;-58
2022/08/17 10:18:46;;;;;;;5.60;3.25;;;30.10;63.40;;;;;;5077994;28;20200;-57
2022/08/17 10:26:53;;;;;;;5.22;3.10;;;30.30;64.00;;;;;;5074419;28;20204;-58
2022/08/17 10:29:26;;;;;;;7.30;3.50;;;30.40;63.40;;;;;;5074908;28;20196;-61
2022/08/17 10:32:02;;;;;;;6.35;3.08;;;30.50;63.50;;;;;;5074860;28;20657;-57
2022/08/17 10:34:41;;;;;;;9.63;4.00;;;30.60;62.60;;;;;;5074748;28;20225;-61
2022/08/17 10:37:23;;;;;;;4.20;3.50;;;30.80;62.80;;;;;;5073953;28;20228;-60
2022/08/17 10:40:12;;;;;;;5.10;3.08;;;30.90;62.50;;;;;;5074338;28;20258;-60
2022/08/17 10:42:47;;;;;;;4.70;3.30;;;31.10;62.10;;;;;;5073652;28;20588;-59
2022/08/17 10:45:18;;;;;;;5.65;2.95;;;31.10;61.90;;;;;;5074395;28;20232;-58
2022/08/17 10:48:02;;;;;;;9.68;3.33;;;31.30;62.00;;;;;;5073894;28;20209;-60
2022/08/17 10:50:57;;;;;;;6.95;3.20;;;31.40;61.40;;;;;;5073899;28;20209;-57
2022/08/17 10:53:53;;;;;;;6.18;2.90;;;31.30;61.30;;;;;;5074140;28;20438;-58
2022/08/17 10:56:23;;;;;;;4.38;2.67;;;31.10;61.20;;;;;;5073732;28;20295;-57
2022/08/17 10:58:53;;;;;;;8.05;2.80;;;31.00;60.80;;;;;;5073660;28;20235;-59
2022/08/17 11:01:22;;;;;;;3.40;2.63;;;30.90;61.10;;;;;;5073388;28;20205;-56
2022/08/17 11:03:53;;;;;;;4.13;2.75;;;30.90;60.80;;;;;;5072920;28;20296;-57
2022/08/17 11:06:32;;;;;;;5.57;2.55;;;31.10;60.60;;;;;;5073088;28;20224;-56
2022/08/17 11:09:19;;;;;;;6.88;2.50;;;31.10;60.30;;;;;;5073294;28;20256;-58
2022/08/17 11:12:05;;;;;;;3.33;2.42;;;31.20;60.10;;;;;;5073088;28;20208;-61
2022/08/17 11:14:52;;;;;;;4.43;2.75;;;31.20;59.50;;;;;;5072931;28;20221;-59
2022/08/17 11:17:42;;;;;;;5.47;3.50;;;31.10;60.00;;;;;;5073451;28;20212;-59
2022/08/17 11:20:45;;;;;;;3.58;2.45;;;31.00;59.80;;;;;;5073329;28;20241;-57
2022/08/17 11:23:24;;;;;;;4.40;2.58;;;30.90;59.70;;;;;;5072945;28;20628;-58
2022/08/17 11:25:54;;;;;;;5.68;2.70;;;30.80;59.50;;;;;;5072620;28;20711;-57
2022/08/17 11:28:24;;;;;;;3.45;2.42;;;30.80;59.70;;;;;;5073008;28;20216;-57
2022/08/17 11:30:53;;;;;;;5.38;2.75;;;30.70;60.10;;;;;;5072728;28;20596;-57
2022/08/17 11:34:06;;;;;;;4.45;2.90;;;30.60;60.30;;;;;;5071598;28;20205;-57
2022/08/17 11:37:06;;;;;;;4.30;2.70;;;30.40;61.10;;;;;;5036322;28;20299;-57
2022/08/17 11:39:49;;;;;;;5.68;2.80;;;30.30;61.60;;;;;;5068344;28;20645;-55
2022/08/17 11:42:29;;;;;;;3.67;2.65;;;30.20;62.10;;;;;;5073330;28;20671;-55
2022/08/17 11:44:59;;;;;;;5.28;2.58;;;30.10;62.80;;;;;;5072926;28;20315;-55
2022/08/17 11:53:58;;;;;;;3.28;2.42;;;29.50;65.20;;;;;;5073320;28;20253;-56
2022/08/17 11:56:41;;;;;;;2.65;2.45;;;29.30;65.90;;;;;;5073219;28;20409;-57
2022/08/17 11:59:46;;;;;;;4.47;2.45;;;29.10;67.10;;;;;;5073997;28;20209;-57
2022/08/17 12:02:33;;;;;;;4.53;2.58;;;28.90;67.80;;;;;;5074465;28;20211;-59
2022/08/17 12:05:10;;;;;;;5.60;2.78;;;28.80;68.50;;;;;;5075562;28;20495;-59
2022/08/17 12:07:42;;;;;;;3.08;2.47;;;28.80;68.70;;;;;;5074537;28;20205;-59
2022/08/17 12:10:14;;;;;;;4.80;2.67;;;29.10;68.20;;;;;;5075617;28;20295;-58
2022/08/17 12:12:43;;;;;;;4.05;2.35;;;29.40;67.60;;;;;;5074564;28;20215;-58
2022/08/17 12:15:17;;;;;;;2.72;2.53;;;29.70;66.90;;;;;;5073678;28;20719;-58
2022/08/17 12:17:52;;;;;;;3.95;2.63;;;30.10;66.30;;;;;;5073489;28;20208;-58
2022/08/17 12:20:24;;;;;;;5.78;2.40;;;30.40;65.60;;;;;;5074089;28;20227;-58
2022/08/17 12:22:59;;;;;;;4.55;2.30;;;30.70;64.10;;;;;;5073471;28;20205;-62
2022/08/17 12:25:33;;;;;;;3.45;2.40;;;30.90;62.90;;;;;;5074178;28;20224;-61
2022/08/17 12:28:00;;;;;;;6.18;2.60;;;31.00;63.00;;;;;;5073948;28;20632;-60
2022/08/17 12:30:28;;;;;;;3.90;2.50;;;31.00;61.20;;;;;;5074579;28;20205;-62
2022/08/17 12:32:55;;;;;;;3.55;2.42;;;31.10;60.30;;;;;;5076977;28;20262;-57
2022/08/17 12:35:28;;;;;;;2.88;2.40;;;31.10;60.00;;;;;;5074391;28;20256;-57
2022/08/17 12:37:57;;;;;;;4.93;2.30;;;31.30;60.30;;;;;;5074727;28;20266;-57
2022/08/17 12:40:26;;;;;;;6.20;2.60;;;31.40;59.90;;;;;;5074295;28;20294;-57
2022/08/17 12:43:00;;;;;;;5.53;2.28;;;31.30;59.80;;;;;;5074312;28;20208;-57
2022/08/17 12:45:30;;;;;;;3.28;2.38;;;30.90;58.90;;;;;;5074344;28;20232;-56
2022/08/17 12:48:06;;;;;;;3.00;2.70;;;30.80;58.20;;;;;;5074320;28;20204;-56
2022/08/17 12:50:34;;;;;;;5.30;2.40;;;31.00;58.10;;;;;;5074297;28;20210;-57
2022/08/17 12:53:01;;;;;;;4.10;2.60;;;31.20;57.70;;;;;;5074753;28;20300;-56
2022/08/17 12:55:29;;;;;;;5.20;2.92;;;31.30;57.00;;;;;;5074092;28;20232;-56
2022/08/17 12:57:58;;;;;;;8.68;3.30;;;31.60;56.30;;;;;;5073843;28;20201;-57
2022/08/17 13:00:27;;;;;;;9.00;2.83;;;31.80;56.20;;;;;;5073981;28;20200;-56
2022/08/17 13:02:59;;;;;;;4.15;2.78;;;32.00;56.40;;;;;;5073838;28;20219;-57
2022/08/17 13:05:28;;;;;;;3.97;2.30;;;32.20;56.40;;;;;;5074325;28;20233;-56
2022/08/17 13:07:56;;;;;;;5.53;2.50;;;32.30;55.60;;;;;;5074483;28;20208;-57
2022/08/17 13:10:29;;;;;;;4.20;2.63;;;32.10;55.20;;;;;;5074471;28;20205;-56
2022/08/17 13:13:02;;;;;;;2.50;2.28;;;32.10;55.20;;;;;;5074818;28;20205;-56
2022/08/17 13:15:33;;;;;;;3.72;2.60;;;32.20;55.60;;;;;;5074334;28;20225;-57
2022/08/17 13:18:05;;;;;;;5.05;2.58;;;32.10;55.80;;;;;;5075033;28;20851;-55
2022/08/17 13:20:33;;;;;;;4.97;2.42;;;32.10;55.70;;;;;;5075022;28;20296;-55
2022/08/17 13:23:05;;;;;;;3.35;2.45;;;32.10;54.90;;;;;;5073653;28;20208;-56
2022/08/17 13:25:33;;;;;;;3.55;2.75;;;32.20;54.60;;;;;;5072963;28;20597;-56
2022/08/17 13:28:01;;;;;;;5.30;2.40;;;32.30;54.70;;;;;;5073835;28;20213;-57
2022/08/17 13:30:32;;;;;;;8.70;2.63;;;32.40;54.10;;;;;;5074030;28;20231;-56
2022/08/17 13:32:59;;;;;;;8.75;3.10;;;32.40;54.20;;;;;;5074958;28;20211;-55
2022/08/17 13:35:43;;;;;;;6.13;2.67;;;32.40;55.20;;;;;;5074979;28;20303;-56
2022/08/17 13:38:16;;;;;;;6.28;2.60;;;32.40;54.70;;;;;;5074623;28;20211;-56
2022/08/17 13:40:48;;;;;;;6.90;2.58;;;32.50;54.20;;;;;;5075054;28;20703;-56